Time;durP1;ratioP1;P1;durP2;ratioP2;P2;SDS_P1;SDS_P2;PMS_P1;PMS_P2;Temp;Humidity;BMP_temperature;BMP_pressure;BME280_temperature;BME280_humidity;BME280_pressure;Samples;Min_cycle;Max_cycle;Signal;HPM_P1;HPM_P2
2022/07/28 00:01:51;;;;;;;;;1.00;1.00;;;;;19.21;93.17;101227.28;4949896;28;45442;-93
2022/07/28 00:04:20;;;;;;;;;1.25;1.25;;;;;19.15;94.09;101219.81;4952638;28;44778;-93
2022/07/28 00:06:46;;;;;;;;;4.40;3.00;;;;;19.17;94.06;101219.66;4953101;28;44882;-94
2022/07/28 00:09:15;;;;;;;;;1.75;1.75;;;;;19.12;94.92;101216.53;4950579;28;45363;-94
2022/07/28 00:11:42;;;;;;;;;3.00;1.20;;;;;19.07;95.84;101216.13;4955476;28;44711;-94
2022/07/28 00:14:11;;;;;;;;;1.60;1.40;;;;;19.08;96.22;101210.59;4955749;28;44742;-95
2022/07/28 00:16:36;;;;;;;;;1.75;1.75;;;;;19.01;94.90;101212.19;4959987;28;44880;-94
2022/07/28 00:19:03;;;;;;;;;1.20;1.20;;;;;18.96;93.56;101209.94;4966253;28;45342;-92
2022/07/28 00:21:31;;;;;;;;;2.00;2.00;;;;;18.97;95.73;101211.63;4967245;28;44521;-94
2022/07/28 00:23:56;;;;;;;;;1.00;1.00;;;;;18.97;96.58;101211.63;4959210;28;44766;-95
2022/07/28 00:26:22;;;;;;;;;1.00;1.00;;;;;18.94;94.35;101203.81;4954928;28;44979;-94
2022/07/28 00:28:49;;;;;;;;;1.00;1.00;;;;;18.94;94.47;101201.13;4969290;28;46646;-94
2022/07/28 00:31:14;;;;;;;;;3.00;1.00;;;;;18.91;97.51;101192.53;4953963;28;44629;-93
2022/07/28 00:33:45;;;;;;;;;2.00;2.00;;;;;18.92;97.41;101194.22;4955476;28;44606;-95
2022/07/28 00:36:12;;;;;;;;;0.80;0.80;;;;;18.85;96.02;101185.84;4962143;28;44853;-94
2022/07/28 00:38:39;;;;;;;;;1.60;1.60;;;;;18.87;97.41;101183.88;4963881;28;45302;-94
2022/07/28 00:41:10;;;;;;;;;3.00;3.00;;;;;18.82;97.83;101182.63;4958864;28;44745;-94
2022/07/28 00:43:40;;;;;;;;;1.00;1.00;;;;;18.74;96.90;101169.88;4945017;28;44768;-94
2022/07/28 00:46:07;;;;;;;;;2.00;1.60;;;;;18.71;97.08;101176.41;4918721;28;44893;-93
2022/07/28 00:51:12;;;;;;;;;2.00;2.00;;;;;18.63;99.26;101173.56;4962761;23;44892;-91
2022/07/28 00:53:38;;;;;;;;;1.60;1.60;;;;;18.62;99.15;101179.94;4911244;29;44738;-92
2022/07/28 00:56:05;;;;;;;;;3.00;1.00;;;;;18.62;100.00;101179.09;4911224;29;44948;-92
2022/07/28 00:58:32;;;;;;;;;2.80;1.00;;;;;18.54;100.00;101162.81;4911686;29;45116;-93
2022/07/28 01:04:05;;;;;;;;;3.00;2.00;;;;;18.52;99.17;101172.84;5190037;23;46441;-92
2022/07/28 01:06:31;;;;;;;;;1.00;1.00;;;;;18.49;98.21;101165.91;4924957;28;44818;-92
2022/07/28 01:09:08;;;;;;;;;1.75;1.75;;;;;18.48;99.78;101173.16;4948261;28;45080;-91
2022/07/28 01:11:43;;;;;;;;;2.00;2.00;;;;;18.48;100.00;101165.06;4946736;28;44564;-93
2022/07/28 01:14:42;;;;;;;;;1.40;1.40;;;;;18.46;99.21;101153.59;4938362;28;44678;-93
2022/07/28 01:17:35;;;;;;;;;0.00;0.00;;;;;18.48;100.00;101154.31;4939748;28;44981;-92
2022/07/28 01:20:10;;;;;;;;;0.00;0.00;;;;;18.44;100.00;101141.28;4938803;28;47036;-91
2022/07/28 01:22:50;;;;;;;;;2.00;2.00;;;;;18.46;100.00;101145.50;4937033;28;44587;-92
2022/07/28 01:25:44;;;;;;;;;3.00;3.00;;;;;18.49;100.00;101139.84;4942110;28;44793;-91
2022/07/28 01:33:50;;;;;;;;;2.40;1.00;;;;;18.55;100.00;101148.34;4162795;26;44989;-93
2022/07/28 01:36:21;;;;;;;;;1.00;1.00;;;;;18.54;100.00;101147.50;4909240;29;44810;-93
2022/07/28 01:38:51;;;;;;;;;1.00;1.00;;;;;18.47;98.23;101141.84;4909819;29;44933;-93
2022/07/28 01:41:22;;;;;;;;;2.60;2.00;;;;;18.50;100.00;101148.78;4926496;29;45273;-92
2022/07/28 01:43:55;;;;;;;;;1.00;1.00;;;;;18.43;100.00;101153.91;4910336;28;44778;-93
2022/07/28 01:46:23;;;;;;;;;1.00;1.00;;;;;18.41;99.66;101150.47;4911706;29;44596;-92
2022/07/28 01:48:50;;;;;;;;;1.00;1.00;;;;;18.40;100.00;101145.25;4894937;29;44907;-92
2022/07/28 01:51:18;;;;;;;;;1.40;1.00;;;;;18.36;100.00;101139.31;4908500;29;45251;-93
2022/07/28 01:53:46;;;;;;;;;0.40;0.40;;;;;18.37;97.07;101138.34;4906408;29;44768;-93
2022/07/28 01:56:14;;;;;;;;;0.60;0.60;;;;;18.35;100.00;101137.63;4906016;29;44572;-92
2022/07/28 01:58:43;;;;;;;;;1.00;1.00;;;;;18.37;100.00;101135.66;4906561;29;44871;-94
2022/07/28 02:01:10;;;;;;;;;1.00;1.00;;;;;18.32;100.00;101137.88;4903069;29;45315;-93
2022/07/28 02:03:38;;;;;;;;;1.00;1.00;;;;;18.31;100.00;101136.19;4901123;29;44638;-94
2022/07/28 02:06:06;;;;;;;;;1.00;1.00;;;;;18.34;100.00;101141.31;4899183;29;44624;-94
2022/07/28 02:08:34;;;;;;;;;1.00;1.00;;;;;18.32;100.00;101142.41;4898727;29;44816;-94
2022/07/28 02:13:49;;;;;;;;;2.00;2.00;;;;;18.32;100.00;101127.13;5124541;23;44800;-93
2022/07/28 02:16:19;;;;;;;;;1.20;1.20;;;;;18.35;100.00;101132.22;4964140;28;44723;-94
2022/07/28 02:18:47;;;;;;;;;1.00;1.00;;;;;18.34;100.00;101119.78;4948921;28;44879;-93
2022/07/28 02:21:19;;;;;;;;;5.00;2.00;;;;;18.33;100.00;101117.25;4963154;28;45183;-93
2022/07/28 02:23:47;;;;;;;;;2.40;1.40;;;;;18.31;100.00;101113.84;4963556;28;45266;-94
2022/07/28 02:26:17;;;;;;;;;3.00;1.00;;;;;18.27;100.00;101120.47;4946711;28;44911;-93
2022/07/28 02:28:51;;;;;;;;;2.00;2.00;;;;;18.28;100.00;101116.81;4950118;28;44764;-93
2022/07/28 02:31:23;;;;;;;;;2.00;2.00;;;;;18.23;100.00;101101.97;4934459;28;45030;-95
2022/07/28 02:33:53;;;;;;;;;1.00;1.00;;;;;18.24;100.00;101109.03;4953463;28;44751;-95
2022/07/28 02:36:33;;;;;;;;;1.80;1.80;;;;;18.27;99.88;101109.72;4955102;28;44708;-93
2022/07/28 02:39:11;;;;;;;;;1.80;1.80;;;;;18.31;100.00;101109.28;4957349;28;44781;-94
2022/07/28 02:41:43;;;;;;;;;2.00;2.00;;;;;18.36;100.00;101107.03;4954244;28;45434;-94
2022/07/28 02:44:15;;;;;;;;;2.00;2.00;;;;;18.39;100.00;101108.59;4951274;28;44801;-93
2022/07/28 02:46:45;;;;;;;;;1.00;1.00;;;;;18.39;100.00;101104.06;4953026;28;44681;-93
2022/07/28 02:49:32;;;;;;;;;1.00;1.00;;;;;18.41;98.32;101104.75;4941952;28;44812;-94
2022/07/28 02:55:23;;;;;;;;;2.00;2.00;;;;;18.43;99.84;101100.09;4945551;28;44723;-94
2022/07/28 03:01:20;;;;;;;;;1.50;1.50;;;;;18.46;100.00;101104.31;4947834;28;44681;-94
2022/07/28 03:03:47;;;;;;;;;3.00;3.00;;;;;18.44;100.00;101099.09;4947089;28;45354;-93
2022/07/28 03:06:15;;;;;;;;;1.20;1.20;;;;;18.47;100.00;101095.28;4964245;28;44673;-94
2022/07/28 03:08:42;;;;;;;;;2.00;2.00;;;;;18.47;100.00;101097.97;4968144;28;44674;-95
2022/07/28 03:11:09;;;;;;;;;1.75;1.75;;;;;18.45;98.25;101106.16;4952394;28;44757;-93
2022/07/28 03:13:38;;;;;;;;;2.00;2.00;;;;;18.42;98.43;101109.16;4951034;28;45019;-93
2022/07/28 03:16:05;;;;;;;;;2.60;2.00;;;;;18.42;100.00;101097.53;4951772;28;44723;-93
2022/07/28 03:18:31;;;;;;;;;1.20;1.20;;;;;18.42;99.38;101095.72;4949574;28;44647;-93
2022/07/28 03:20:59;;;;;;;;;2.75;2.75;;;;;18.42;100.00;101097.53;4947862;28;44924;-93
2022/07/28 03:31:24;;;;;;;;;2.00;2.00;;;;;18.42;100.00;101101.09;5222738;23;45121;-93
2022/07/28 03:33:51;;;;;;;;;2.00;2.00;;;;;18.44;100.00;101101.78;4911065;29;45481;-92
2022/07/28 03:36:25;;;;;;;;;4.00;4.00;;;;;18.38;100.00;101088.91;4890870;29;44600;-91
2022/07/28 03:38:58;;;;;;;;;3.20;3.20;;;;;18.43;99.85;101097.41;4903399;29;44675;-93
2022/07/28 03:41:28;;;;;;;;;3.00;2.60;;;;;18.43;100.00;101101.94;4898350;29;44900;-92
2022/07/28 03:43:55;;;;;;;;;2.00;2.00;;;;;18.42;100.00;101097.53;4898776;29;45075;-93
2022/07/28 03:46:22;;;;;;;;;2.40;2.40;;;;;18.43;100.00;101096.56;4882299;29;44830;-92
2022/07/28 03:48:50;;;;;;;;;2.20;2.20;;;;;18.40;100.00;101092.28;4903777;29;44605;-94
2022/07/28 03:51:16;;;;;;;;;2.00;2.00;;;;;18.42;100.00;101097.53;5174307;23;45675;-95
2022/07/28 03:53:42;;;;;;;;;4.50;3.00;;;;;18.36;100.00;101088.19;4920238;29;46799;-93
2022/07/28 03:56:09;;;;;;;;;3.40;3.40;;;;;18.38;100.00;101090.75;4891281;29;44649;-94
2022/07/28 03:58:37;;;;;;;;;1.20;1.20;;;;;18.35;100.00;101085.66;4907522;28;44745;-94
2022/07/28 04:01:02;;;;;;;;;2.20;1.40;;;;;18.34;100.00;101095.56;4895381;29;44846;-94
2022/07/28 04:03:29;;;;;;;;;3.25;2.75;;;;;18.30;100.00;101094.16;4920743;28;46623;-94
2022/07/28 04:05:55;;;;;;;;;4.00;3.00;;;;;18.31;100.00;101092.31;4900881;29;44591;-93
2022/07/28 04:08:21;;;;;;;;;3.00;3.00;;;;;18.26;100.00;101089.22;4898846;29;44705;-94
2022/07/28 04:10:49;;;;;;;;;3.75;3.00;;;;;18.25;100.00;101096.44;4899549;29;44817;-94
2022/07/28 04:13:20;;;;;;;;;3.00;3.00;;;;;18.27;100.00;101101.66;4898747;29;45116;-94
2022/07/28 04:15:48;;;;;;;;;3.60;3.60;;;;;18.20;100.00;101104.94;4896601;29;44681;-94
2022/07/28 04:18:17;;;;;;;;;2.00;2.00;;;;;18.20;100.00;101101.41;4877565;29;44773;-93
2022/07/28 04:20:47;;;;;;;;;2.40;2.40;;;;;18.18;100.00;101092.59;4911256;29;44833;-93
2022/07/28 04:23:18;;;;;;;;;2.40;2.20;;;;;18.18;100.00;101096.16;4911589;29;45301;-94
2022/07/28 04:25:45;;;;;;;;;2.20;2.20;;;;;18.13;100.00;101100.25;4895639;29;44644;-93
2022/07/28 04:28:10;;;;;;;;;3.00;2.60;;;;;18.13;100.00;101095.75;4896495;29;44712;-93
2022/07/28 04:30:36;;;;;;;;;7.50;3.25;;;;;18.05;100.00;101084.84;4898238;29;44870;-93
2022/07/28 04:33:02;;;;;;;;;2.50;2.50;;;;;18.07;100.00;101085.53;4919948;29;45128;-93
2022/07/28 04:35:28;;;;;;;;;3.25;1.75;;;;;18.10;100.00;101092.50;4925157;29;44594;-92
2022/07/28 04:37:57;;;;;;;;;3.00;3.00;;;;;18.13;100.00;101086.81;4910633;29;44743;-93
2022/07/28 04:40:23;;;;;;;;;2.80;2.20;;;;;18.12;100.00;101082.44;4905411;29;44813;-93
2022/07/28 04:42:50;;;;;;;;;3.20;2.80;;;;;18.18;100.00;101089.91;4900935;29;45130;-93
2022/07/28 04:45:16;;;;;;;;;3.00;3.00;;;;;18.18;100.00;101080.03;4902588;29;44658;-93
2022/07/28 04:47:42;;;;;;;;;4.40;3.00;;;;;18.21;100.00;101085.09;4902550;29;44603;-93
2022/07/28 04:50:11;;;;;;;;;5.75;3.00;;;;;18.21;100.00;101085.09;4900649;29;44950;-93
2022/07/28 04:52:38;;;;;;;;;4.00;3.00;;;;;18.23;100.00;101075.06;4908395;29;45013;-93
2022/07/28 04:55:05;;;;;;;;;3.60;3.40;;;;;18.28;100.00;101077.34;4898787;29;44708;-93
2022/07/28 04:57:33;;;;;;;;;7.80;3.00;;;;;18.31;100.00;101090.47;4912629;29;44806;-93
2022/07/28 05:00:00;;;;;;;;;4.25;3.00;;;;;18.32;100.00;101078.72;4913297;29;44777;-95
2022/07/28 05:02:26;;;;;;;;;3.00;3.00;;;;;18.35;100.00;101069.53;4910569;29;45163;-93
2022/07/28 05:04:52;;;;;;;;;3.60;3.60;;;;;18.37;100.00;101080.97;4893540;29;44809;-93
2022/07/28 05:07:19;;;;;;;;;6.20;5.60;;;;;18.37;100.00;101071.09;4913434;28;44785;-92
2022/07/28 05:09:46;;;;;;;;;4.25;4.25;;;;;18.42;100.00;101068.81;4915530;28;44853;-94
2022/07/28 05:12:11;;;;;;;;;4.00;4.00;;;;;18.48;100.00;101080.81;4917593;29;46557;-93
2022/07/28 05:14:37;;;;;;;;;8.75;4.75;;;;;18.45;100.00;101073.03;4915996;29;44660;-94
2022/07/28 05:17:03;;;;;;;;;6.75;3.50;;;;;18.54;100.00;101084.78;4919155;28;44609;-94
2022/07/28 05:19:28;;;;;;;;;4.00;3.25;;;;;18.52;100.00;101078.66;4912393;29;44936;-94
2022/07/28 05:21:54;;;;;;;;;5.75;5.00;;;;;18.57;100.00;101093.41;4896841;29;45193;-94
2022/07/28 05:24:20;;;;;;;;;7.25;5.00;;;;;18.61;100.00;101083.19;4915380;28;44720;-94
2022/07/28 05:26:46;;;;;;;;;5.00;5.00;;;;;18.64;100.00;101080.19;4914863;29;44743;-93
2022/07/28 05:29:11;;;;;;;;;6.00;6.00;;;;;18.72;100.00;101081.19;4926057;28;44890;-92
2022/07/28 05:31:49;;;;;;;;;9.25;7.00;;;;;18.83;100.00;101099.00;4925027;28;45024;-94
2022/07/28 05:34:19;;;;;;;;;6.00;6.00;;;;;18.83;100.00;101087.41;4915678;29;44679;-92
2022/07/28 05:36:44;;;;;;;;;5.40;4.80;;;;;18.87;100.00;101084.25;4915329;29;44766;-94
2022/07/28 05:39:10;;;;;;;;;5.50;5.50;;;;;18.86;100.00;101079.88;4913454;29;44982;-94
2022/07/28 05:41:35;;;;;;;;;4.50;4.50;;;;;18.90;100.00;101077.72;4911235;29;45167;-93
2022/07/28 05:44:02;;;;;;;;;5.00;5.00;;;;;18.98;100.00;101084.06;4908119;28;44731;-93
2022/07/28 05:46:31;;;;;;;;;6.00;6.00;;;;;19.05;100.00;101086.16;4908297;29;45450;-93
2022/07/28 05:48:56;;;;;;;;;9.00;6.25;;;;;19.12;100.00;101073.81;4911604;29;44820;-93
2022/07/28 05:51:22;;;;;;;;;4.75;4.75;;;;;19.17;100.00;101077.72;4914074;29;45381;-93
2022/07/28 05:53:48;;;;;;;;;5.50;5.00;;;;;19.24;100.00;101078.84;4916180;28;44639;-93
2022/07/28 05:56:15;;;;;;;;;10.00;5.80;;;;;19.27;100.00;101081.22;4898170;29;44759;-93
2022/07/28 05:58:40;;;;;;;;;6.00;4.00;;;;;19.32;100.00;101080.75;4899621;29;45483;-93
2022/07/28 06:01:09;;;;;;;;;7.50;7.00;;;;;19.36;100.00;101078.63;4904022;29;45044;-93
2022/07/28 06:03:34;;;;;;;;;5.60;5.60;;;;;19.37;100.00;101083.00;4892134;29;44618;-93
2022/07/28 06:06:00;;;;;;;;;6.75;6.75;;;;;19.41;100.00;101087.94;4912969;28;44739;-92
2022/07/28 06:08:28;;;;;;;;;5.00;5.00;;;;;19.44;100.00;101082.25;4913633;28;44791;-93
2022/07/28 06:11:00;;;;;;;;;6.60;4.40;;;;;19.52;100.00;101084.19;4913729;28;45118;-93
2022/07/28 06:13:26;;;;;;;;;3.60;3.00;;;;;19.57;100.00;101091.81;4929989;28;44684;-93
2022/07/28 06:15:52;;;;;;;;;6.00;5.00;;;;;19.59;100.00;101082.59;4928954;28;44778;-93
2022/07/28 06:18:19;;;;;;;;;5.00;5.00;;;;;19.69;100.00;101082.56;4894316;29;44870;-93
2022/07/28 06:20:45;;;;;;;;;4.60;4.60;;;;;19.80;99.56;101089.56;4904157;29;45253;-93
2022/07/28 06:23:18;;;;;;;;;6.80;4.60;;;;;19.93;98.83;101092.72;4904997;29;44761;-94
2022/07/28 06:25:43;;;;;;;;;6.80;5.40;;;;;20.03;99.00;101088.94;4906470;29;44597;-94
2022/07/28 06:28:12;;;;;;;;;5.00;5.00;;;;;20.05;98.00;101087.91;4909487;28;44823;-92
2022/07/28 06:30:39;;;;;;;;;4.25;4.25;;;;;20.15;97.85;101086.81;4912255;28;45167;-93
2022/07/28 06:33:06;;;;;;;;;6.40;5.00;;;;;20.29;98.47;101088.97;4946316;23;44913;-94
2022/07/28 06:35:44;;;;;;;;;8.00;6.40;;;;;20.43;98.14;101092.94;4937942;28;44742;-92
2022/07/28 06:38:27;;;;;;;;;4.60;4.60;;;;;20.49;97.25;101096.88;4920628;28;44931;-93
2022/07/28 06:40:57;;;;;;;;;6.40;6.40;;;;;20.52;96.12;101091.19;4933368;28;45067;-95
2022/07/28 06:43:28;;;;;;;;;4.00;4.00;;;;;20.59;96.39;101091.38;4935020;28;44837;-94
2022/07/28 06:46:01;;;;;;;;;4.40;4.40;;;;;20.60;95.92;101077.75;4934016;28;44770;-93
2022/07/28 06:48:32;;;;;;;;;7.00;6.00;;;;;20.66;95.61;101084.34;4915145;28;45038;-93
2022/07/28 06:51:01;;;;;;;;;4.80;4.80;;;;;20.83;96.50;101094.22;4929162;28;45448;-93
2022/07/28 06:53:42;;;;;;;;;6.00;5.80;;;;;21.07;95.20;101084.56;4937119;28;44621;-93
2022/07/28 06:56:13;;;;;;;;;7.80;4.60;;;;;21.36;93.35;101086.88;4936990;28;44745;-92
2022/07/28 06:58:56;;;;;;;;;7.20;5.40;;;;;21.65;92.40;101099.97;4937714;28;44812;-93
2022/07/28 07:01:22;;;;;;;;;4.40;4.40;;;;;21.80;90.48;101101.00;4917670;28;45357;-93
2022/07/28 07:03:58;;;;;;;;;7.25;5.00;;;;;22.02;89.83;101092.25;4934494;28;44723;-92
2022/07/28 07:06:23;;;;;;;;;8.40;5.20;;;;;22.13;92.43;101091.09;4936876;28;44780;-92
2022/07/28 07:09:04;;;;;;;;;8.25;6.00;;;;;22.09;89.08;101087.00;4937178;28;44840;-91
2022/07/28 07:29:36;;;;;;;;;7.50;6.00;;;;;22.99;84.50;101098.59;1445449;26;45157;-94
2022/07/28 07:32:01;;;;;;;;;13.50;10.25;;;;;23.04;84.09;101100.75;4912052;29;46788;-93
2022/07/28 07:34:27;;;;;;;;;9.50;8.25;;;;;22.93;84.31;101101.16;4915939;29;44713;-92
2022/07/28 07:36:56;;;;;;;;;10.75;9.50;;;;;22.93;82.41;101096.56;4917372;29;44745;-91
2022/07/28 07:39:25;;;;;;;;;7.00;7.00;;;;;22.81;82.37;101097.91;4887784;29;44948;-91
2022/07/28 07:41:56;;;;;;;;;5.00;5.00;;;;;22.80;80.91;101091.66;4917666;29;45267;-93
2022/07/28 07:44:22;;;;;;;;;8.20;5.80;;;;;22.75;82.61;101099.47;4918431;28;44583;-92
2022/07/28 07:46:48;;;;;;;;;9.00;7.20;;;;;22.77;82.81;101100.16;4902123;29;44772;-92
2022/07/28 07:49:17;;;;;;;;;9.00;5.75;;;;;22.83;82.56;101096.75;4917311;29;44882;-92
2022/07/28 07:51:44;;;;;;;;;5.20;5.20;;;;;22.91;84.25;101098.59;4898605;29;45252;-94
2022/07/28 07:54:11;;;;;;;;;6.00;6.00;;;;;22.95;83.09;101097.22;4915709;29;44628;-93
2022/07/28 07:56:36;;;;;;;;;6.00;5.20;;;;;23.00;82.22;101089.41;4912845;29;44767;-93
2022/07/28 07:59:02;;;;;;;;;7.75;6.50;;;;;22.86;81.55;101100.94;4895898;29;44954;-92
2022/07/28 08:01:28;;;;;;;;;7.00;6.00;;;;;22.84;81.47;101100.28;4863779;29;46685;-92
2022/07/28 08:03:54;;;;;;;;;9.00;7.50;;;;;22.93;84.14;101084.91;4895935;29;44762;-93
2022/07/28 08:06:23;;;;;;;;;8.00;6.25;;;;;23.11;83.49;101090.91;4899333;29;44794;-92
2022/07/28 08:08:51;;;;;;;;;6.00;6.00;;;;;23.31;80.25;101086.75;4904621;29;44885;-92
2022/07/28 08:11:18;;;;;;;;;8.60;6.80;;;;;23.62;79.69;101088.59;4923795;29;45149;-93
2022/07/28 08:13:51;;;;;;;;;8.75;6.00;;;;;23.80;76.60;101093.78;4890431;29;44774;-92
2022/07/28 08:16:19;;;;;;;;;9.80;9.00;;;;;23.76;75.63;101093.28;4903043;29;44667;-91
2022/07/28 08:18:45;;;;;;;;;10.80;7.60;;;;;23.56;76.35;101090.19;4903442;29;44854;-92
2022/07/28 08:21:13;;;;;;;;;6.00;6.00;;;;;23.59;78.11;101091.66;4921951;29;44932;-93
2022/07/28 08:23:39;;;;;;;;;9.40;7.00;;;;;23.50;77.46;101087.34;4889725;29;44645;-92
2022/07/28 08:26:04;;;;;;;;;4.75;4.75;;;;;23.79;78.27;101082.09;4900068;29;44710;-93
2022/07/28 08:28:34;;;;;;;;;5.50;5.50;;;;;23.76;75.23;101087.03;4898674;29;44836;-92
2022/07/28 08:31:03;;;;;;;;;8.40;7.40;;;;;23.74;75.72;101083.63;4914296;28;45153;-92
2022/07/28 08:33:29;;;;;;;;;9.00;9.00;;;;;23.71;75.67;101089.44;4896590;29;44709;-93
2022/07/28 08:35:55;;;;;;;;;9.75;8.00;;;;;23.75;77.41;101088.91;4896673;29;44624;-90
2022/07/28 08:38:25;;;;;;;;;6.25;6.25;;;;;23.88;76.92;101087.44;4897945;29;45008;-92
2022/07/28 08:40:58;;;;;;;;;5.20;3.20;;;;;24.05;75.45;101084.41;4886329;29;45314;-93
2022/07/28 08:43:33;;;;;;;;;6.80;6.60;;;;;24.08;74.98;101081.34;4899084;29;44806;-92
2022/07/28 08:46:12;;;;;;;;;10.20;10.20;;;;;24.22;74.96;101076.97;4915638;29;44721;-92
2022/07/28 08:48:38;;;;;;;;;6.00;5.25;;;;;24.41;74.85;101083.78;4899914;29;44986;-93
2022/07/28 08:51:12;;;;;;;;;6.60;6.60;;;;;24.76;74.48;101084.13;4899515;29;46930;-92
2022/07/28 08:53:39;;;;;;;;;9.20;8.20;;;;;24.74;70.94;101092.44;4915929;29;44709;-93
2022/07/28 08:56:07;;;;;;;;;6.00;6.00;;;;;24.67;74.93;101079.81;4902629;29;44669;-91
2022/07/28 08:58:35;;;;;;;;;3.20;3.20;;;;;24.56;70.77;101078.38;4908119;29;44922;-91
2022/07/28 09:01:05;;;;;;;;;5.00;5.00;;;;;24.54;71.25;101083.16;4926508;28;45128;-93
2022/07/28 09:03:46;;;;;;;;;7.00;5.40;;;;;24.56;71.18;101072.94;4909486;29;44618;-92
2022/07/28 09:06:20;;;;;;;;;12.00;6.00;;;;;24.59;71.88;101072.56;4908549;29;44695;-92
2022/07/28 09:08:47;;;;;;;;;5.00;4.00;;;;;24.53;74.64;101074.16;4894529;29;44867;-94
2022/07/28 09:11:13;;;;;;;;;6.00;6.00;;;;;24.61;72.07;101078.66;4908883;29;45100;-91
2022/07/28 09:13:45;;;;;;;;;5.20;5.20;;;;;24.63;72.82;101079.31;5200200;23;44798;-93
2022/07/28 09:16:15;;;;;;;;;6.20;6.20;;;;;24.71;71.09;101072.94;4967825;28;44896;-94
2022/07/28 09:18:40;;;;;;;;;4.40;4.00;;;;;24.52;70.68;101077.06;4955948;28;44772;-92
2022/07/28 09:21:21;;;;;;;;;4.00;4.00;;;;;24.44;71.72;101080.72;4947627;28;45238;-93
2022/07/28 09:23:53;;;;;;;;;7.00;6.00;;;;;24.50;71.94;101077.25;4950431;28;44641;-92
2022/07/28 09:26:19;;;;;;;;;10.40;5.80;;;;;24.83;69.84;101068.75;4962092;28;44673;-93
2022/07/28 09:28:57;;;;;;;;;6.60;5.40;;;;;24.93;67.95;101087.47;4948954;28;45011;-93
2022/07/28 09:31:30;;;;;;;;;6.00;6.00;;;;;25.03;68.40;101075.28;4949776;28;45228;-93
2022/07/28 09:34:01;;;;;;;;;5.20;5.20;;;;;25.09;67.22;101071.00;4954049;28;44592;-93
2022/07/28 09:36:28;;;;;;;;;5.60;5.00;;;;;24.96;66.54;101063.50;4973741;28;44710;-92
2022/07/28 09:39:00;;;;;;;;;7.20;6.80;;;;;25.23;67.65;101061.97;4954363;28;44837;-92
2022/07/28 09:44:02;;;;;;;;;4.80;4.80;;;;;25.67;65.28;101065.59;5583212;23;46002;-92
2022/07/28 09:51:39;;;;;;;;;8.00;6.40;;;;;25.81;60.70;101059.28;5658463;23;45903;-94
2022/07/28 09:54:14;;;;;;;;;7.20;5.20;;;;;26.11;61.04;101060.00;4919028;29;44652;-94
2022/07/28 09:56:43;;;;;;;;;4.80;4.00;;;;;26.26;57.98;101059.91;4883932;29;44636;-95
2022/07/28 09:59:09;;;;;;;;;5.80;5.20;;;;;25.98;56.23;101066.16;4894455;29;45069;-91
2022/07/28 10:01:59;;;;;;;;;11.40;7.40;;;;;26.18;60.04;101051.84;4913260;29;45072;-91
2022/07/28 10:04:39;;;;;;;;;7.00;7.00;;;;;26.52;56.99;101048.38;4922790;29;44615;-94
2022/07/28 10:07:17;;;;;;;;;4.00;4.00;;;;;26.67;58.01;101060.00;4907575;29;44837;-93
2022/07/28 10:09:54;;;;;;;;;4.00;4.00;;;;;26.90;58.12;101044.19;4901848;29;44894;-93
2022/07/28 10:12:27;;;;;;;;;4.40;4.40;;;;;27.06;59.43;101045.72;4898985;29;45021;-93
2022/07/28 10:18:02;;;;;;;;;3.60;3.60;;;;;27.10;53.51;101047.03;4900092;29;44681;-93
2022/07/28 10:20:31;;;;;;;;;4.20;4.20;;;;;27.33;52.54;101040.41;4911819;29;44968;-93
2022/07/28 10:23:12;;;;;;;;;4.60;3.00;;;;;27.41;50.39;101045.66;4895108;29;45009;-91
2022/07/28 10:25:43;;;;;;;;;1.20;1.20;;;;;27.50;48.67;101047.16;4910647;29;44849;-94
2022/07/28 10:28:11;;;;;;;;;4.20;4.20;;;;;27.59;50.45;101039.59;4915861;29;44670;-91
2022/07/28 10:30:39;;;;;;;;;5.00;3.60;;;;;27.51;45.13;101048.84;4900588;29;44944;-93
2022/07/28 10:33:12;;;;;;;;;3.00;1.60;;;;;27.10;46.26;101036.13;4899551;29;45144;-92
2022/07/28 10:35:40;;;;;;;;;3.00;2.80;;;;;27.02;46.16;101043.59;4914411;29;44757;-90
2022/07/28 10:38:11;;;;;;;;;3.40;2.00;;;;;26.51;46.28;101046.69;4896951;29;44826;-91
2022/07/28 10:40:47;;;;;;;;;5.40;3.00;;;;;26.51;47.36;101039.34;4912153;29;44873;-91
2022/07/28 10:43:14;;;;;;;;;3.00;1.60;;;;;27.01;47.43;101042.75;4896073;29;45044;-91
2022/07/28 10:45:42;;;;;;;;;3.40;2.00;;;;;27.40;47.15;101038.50;4913658;29;44807;-91
2022/07/28 10:48:09;;;;;;;;;2.80;2.80;;;;;27.74;47.44;101040.28;4897989;29;44881;-94
2022/07/28 10:50:35;;;;;;;;;2.20;2.20;;;;;28.03;46.39;101041.78;4882057;29;44931;-93
2022/07/28 10:53:06;;;;;;;;;3.40;2.00;;;;;28.32;47.29;101026.84;4915510;28;45273;-92
2022/07/28 10:55:32;;;;;;;;;2.60;2.60;;;;;28.58;46.75;101034.19;4914310;29;44661;-92
2022/07/28 10:58:38;;;;;;;;;4.75;3.50;;;;;28.74;45.75;101045.72;4915056;29;44644;-93
2022/07/28 11:01:38;;;;;;;;;6.00;6.00;;;;;29.08;45.19;101039.09;4900256;29;44805;-93
2022/07/28 11:04:08;;;;;;;;;2.20;2.20;;;;;29.20;44.66;101031.88;4902171;29;45167;-90
2022/07/28 11:06:41;;;;;;;;;1.80;1.80;;;;;29.00;41.98;101037.44;4907199;29;44666;-92
2022/07/28 11:09:36;;;;;;;;;6.60;6.60;;;;;28.92;41.99;101027.56;4928138;28;44715;-92
2022/07/28 11:12:04;;;;;;;;;2.80;2.60;;;;;28.82;41.44;101040.88;4782298;29;44831;-93
2022/07/28 11:14:35;;;;;;;;;2.00;2.00;;;;;28.58;41.19;101036.94;4787692;29;45377;-92
2022/07/28 11:17:04;;;;;;;;;2.20;2.20;;;;;28.45;43.17;101031.47;4804028;29;44790;-92
2022/07/28 11:19:42;;;;;;;;;1.80;1.80;;;;;27.82;42.54;101025.59;4803851;29;44814;-91
2022/07/28 11:22:27;;;;;;;;;4.60;4.60;;;;;27.83;43.11;101032.75;4803041;29;44799;-92
2022/07/28 11:25:03;;;;;;;;;3.80;2.80;;;;;28.11;43.05;101033.38;4805287;29;45485;-93
2022/07/28 11:27:48;;;;;;;;;3.00;3.00;;;;;28.23;42.59;101033.56;4813122;29;45591;-93
2022/07/28 11:30:32;;;;;;;;;3.80;3.20;;;;;27.86;42.53;101040.53;4810168;29;44837;-91
2022/07/28 11:32:58;;;;;;;;;7.40;4.00;;;;;27.51;43.49;101024.28;4797036;29;44840;-89
2022/07/28 11:35:32;;;;;;;;;5.00;4.40;;;;;27.34;43.69;101031.16;4804869;29;45058;-93
2022/07/28 11:38:03;;;;;;;;;2.20;1.00;;;;;27.22;44.28;101030.06;4794416;29;44851;-92
2022/07/28 11:40:47;;;;;;;;;3.00;3.00;;;;;27.38;44.84;101022.34;4805050;29;44661;-92
2022/07/28 11:43:33;;;;;;;;;2.40;1.20;;;;;27.37;43.73;101022.56;4790985;29;44931;-93
2022/07/28 11:46:05;;;;;;;;;5.20;4.00;;;;;27.81;43.98;101026.66;4788778;29;45108;-91
2022/07/28 11:48:31;;;;;;;;;4.60;3.00;;;;;28.16;44.02;101019.94;4865437;29;44753;-92
2022/07/28 11:51:03;;;;;;;;;5.80;3.20;;;;;28.27;44.06;101015.69;4902888;29;44636;-92
2022/07/28 11:53:38;;;;;;;;;4.40;3.20;;;;;28.35;42.68;101023.72;4916369;28;44797;-92
2022/07/28 11:56:07;;;;;;;;;3.00;3.00;;;;;28.46;40.71;101022.22;4939127;28;45004;-93
2022/07/28 11:58:39;;;;;;;;;5.00;3.20;;;;;28.81;40.71;101024.66;4934359;28;44652;-92
2022/07/28 12:01:19;;;;;;;;;3.40;3.40;;;;;28.81;40.46;101019.19;4918744;28;44789;-92
2022/07/28 12:03:55;;;;;;;;;2.80;2.00;;;;;28.47;39.28;101020.31;4919712;28;44817;-92
2022/07/28 12:06:33;;;;;;;;;3.40;3.40;;;;;28.19;40.46;101026.88;4915379;28;45274;-92
2022/07/28 12:09:11;;;;;;;;;3.40;3.00;;;;;28.58;41.15;101009.59;4913275;28;44770;-91
2022/07/28 12:11:39;;;;;;;;;3.40;3.20;;;;;28.96;39.33;101016.19;4913374;28;45288;-91
2022/07/28 12:14:11;;;;;;;;;3.00;3.00;;;;;28.88;39.86;101017.28;4930617;28;44776;-92
2022/07/28 12:16:40;;;;;;;;;2.00;2.00;;;;;28.73;41.24;101019.44;4928947;28;45328;-91
2022/07/28 12:19:07;;;;;;;;;5.40;5.40;;;;;28.71;40.46;101016.91;4935693;28;44624;-92
2022/07/28 12:21:49;;;;;;;;;3.60;1.20;;;;;28.61;41.49;101035.66;4930428;28;44703;-90
2022/07/28 12:24:22;;;;;;;;;2.20;2.20;;;;;28.49;39.41;101035.47;4931159;28;44690;-91
2022/07/28 12:26:50;;;;;;;;;2.60;2.60;;;;;28.56;40.31;101017.16;4933889;28;45043;-92
2022/07/28 12:29:17;;;;;;;;;3.00;3.00;;;;;28.76;39.05;101029.94;4929837;28;44669;-91
2022/07/28 12:32:25;;;;;;;;;3.00;3.00;;;;;28.93;39.00;101015.56;4898450;28;44851;-92
2022/07/28 12:35:17;;;;;;;;;1.60;1.60;;;;;28.97;38.63;101026.13;4916607;28;45384;-91